createdAt,value
2019-03-10T00:04:35.967Z,3.42
2019-03-10T00:09:42.491Z,5.92
2019-03-10T00:14:49.119Z,5.67
2019-03-10T00:19:55.715Z,5.62
2019-03-10T00:25:03.275Z,4.35
2019-03-10T00:30:10.305Z,3.35
2019-03-10T00:35:16.927Z,2.45
2019-03-10T00:41:12.731Z,5.58
2019-03-10T00:47:32.649Z,5.67
2019-03-10T00:52:45.092Z,5.72
2019-03-10T00:57:51.694Z,6.97
2019-03-10T01:02:58.339Z,6.75
2019-03-10T01:08:04.988Z,2.98
2019-03-10T01:13:11.641Z,10.10
2019-03-10T01:18:20.852Z,5.97
2019-03-10T01:23:27.546Z,5.80
2019-03-10T01:28:34.152Z,7.35
2019-03-10T01:35:01.766Z,3.75
2019-03-10T01:40:08.769Z,3.98
2019-03-10T01:45:15.665Z,8.83
2019-03-10T01:50:22.272Z,7.47
2019-03-10T01:55:28.810Z,8.00
2019-03-10T02:00:35.449Z,5.22
2019-03-10T02:05:42.062Z,5.08
2019-03-10T02:10:48.738Z,5.85
2019-03-10T02:15:55.269Z,4.67
2019-03-10T02:21:01.859Z,9.55
2019-03-10T02:26:08.461Z,6.87
2019-03-10T02:31:15.064Z,8.85
2019-03-10T02:36:21.600Z,6.12
2019-03-10T02:41:28.225Z,10.32
2019-03-10T02:46:34.850Z,12.60
2019-03-10T02:51:41.371Z,9.03
2019-03-10T02:56:47.991Z,8.03
2019-03-10T03:01:54.645Z,10.88
2019-03-10T03:07:01.272Z,7.15
2019-03-10T03:12:07.874Z,8.75
2019-03-10T03:17:14.669Z,14.78
2019-03-10T03:22:21.259Z,11.53
2019-03-10T03:27:27.862Z,12.15
2019-03-10T03:32:34.314Z,9.28
2019-03-10T03:37:40.861Z,15.45
2019-03-10T03:42:47.408Z,10.32
2019-03-10T03:47:53.919Z,9.85
2019-03-10T03:53:00.536Z,10.95
2019-03-10T03:58:07.145Z,12.50
2019-03-10T04:03:13.788Z,8.33
2019-03-10T04:08:20.271Z,10.08
2019-03-10T04:13:26.749Z,11.12
2019-03-10T04:18:33.360Z,12.65
2019-03-10T04:23:39.824Z,9.70
2019-03-10T04:28:46.445Z,11.90
2019-03-10T04:33:52.989Z,9.78
2019-03-10T04:38:59.443Z,8.00
2019-03-10T04:44:06.062Z,8.00
2019-03-10T04:49:12.805Z,12.93
2019-03-10T04:54:31.801Z,10.15
2019-03-10T04:59:38.277Z,10.60
2019-03-10T05:04:44.923Z,10.25
2019-03-10T05:09:51.540Z,11.90
2019-03-10T05:14:58.006Z,13.20
2019-03-10T05:20:04.946Z,13.28
2019-03-10T05:25:13.243Z,12.73
2019-03-10T05:30:19.858Z,11.22
2019-03-10T05:35:26.339Z,11.50
2019-03-10T05:40:32.789Z,7.87
2019-03-10T05:45:39.405Z,9.05
2019-03-10T05:50:45.949Z,11.70
2019-03-10T05:55:52.397Z,15.03
2019-03-10T06:00:59.315Z,12.65
2019-03-10T06:06:05.938Z,13.25
2019-03-10T06:11:12.465Z,15.10
2019-03-10T06:16:19.085Z,15.50
2019-03-10T06:21:25.587Z,15.18
2019-03-10T06:26:32.044Z,13.22
2019-03-10T06:31:38.498Z,13.50
2019-03-10T06:36:44.952Z,17.85
2019-03-10T06:41:51.487Z,16.15
2019-03-10T06:46:58.040Z,11.25
2019-03-10T06:52:04.572Z,20.30
2019-03-10T06:57:11.238Z,16.80
2019-03-10T07:02:17.782Z,19.20
2019-03-10T07:07:24.325Z,16.97
2019-03-10T07:12:30.795Z,14.60
2019-03-10T07:17:37.430Z,13.40
2019-03-10T07:22:44.256Z,14.53
2019-03-10T07:28:14.085Z,20.52
2019-03-10T07:33:43.305Z,16.67
2019-03-10T07:39:26.457Z,15.20
2019-03-10T07:44:45.832Z,10.75
2019-03-10T07:50:00.809Z,18.12
2019-03-10T07:55:32.730Z,11.40
2019-03-10T08:00:57.015Z,20.30
2019-03-10T08:06:12.788Z,15.03
2019-03-10T08:11:38.059Z,14.58
2019-03-10T08:17:03.614Z,12.80
2019-03-10T08:22:28.374Z,13.53
2019-03-10T08:28:01.622Z,15.00
2019-03-10T08:33:36.338Z,14.28
2019-03-10T08:39:16.889Z,16.30
2019-03-10T08:45:00.858Z,11.30
2019-03-10T08:50:31.544Z,9.90
2019-03-10T08:55:47.916Z,13.95
2019-03-10T09:01:23.570Z,16.25
2019-03-10T09:07:04.118Z,10.88
2019-03-10T09:12:16.338Z,12.03
2019-03-10T09:17:45.160Z,15.23
2019-03-10T09:23:09.993Z,16.52
2019-03-10T09:28:29.458Z,15.38
2019-03-10T09:34:09.958Z,11.90
2019-03-10T09:39:36.156Z,9.68
2019-03-10T09:45:04.548Z,10.88
2019-03-10T09:50:23.805Z,9.73
2019-03-10T09:55:38.154Z,9.68
2019-03-10T10:01:02.353Z,8.00
2019-03-10T10:06:18.058Z,5.75
2019-03-10T10:11:32.839Z,7.53
2019-03-10T10:16:51.910Z,6.40
2019-03-10T10:22:26.424Z,4.72
2019-03-10T10:27:54.776Z,4.97
2019-03-10T10:33:20.200Z,5.10
2019-03-10T10:38:37.956Z,4.97
2019-03-10T10:43:55.356Z,5.70
2019-03-10T10:49:23.657Z,6.20
2019-03-10T10:55:01.209Z,4.85
2019-03-10T11:00:20.740Z,8.68
2019-03-10T11:05:46.272Z,5.25
2019-03-10T11:11:17.839Z,5.42
2019-03-10T11:16:46.196Z,4.45
2019-03-10T11:22:24.458Z,5.70
2019-03-10T11:27:48.032Z,7.75
2019-03-10T11:33:06.522Z,9.95
2019-03-10T11:38:37.041Z,7.72
2019-03-10T11:44:01.972Z,48.65
2019-03-10T11:49:39.917Z,11.60
2019-03-10T11:55:05.274Z,10.93
2019-03-10T12:00:32.250Z,9.40
2019-03-10T12:06:00.888Z,6.95
2019-03-10T12:11:07.506Z,8.83
2019-03-10T12:16:14.209Z,6.72
2019-03-10T12:21:21.017Z,2.85
2019-03-10T12:26:27.535Z,3.58
2019-03-10T12:31:34.338Z,2.67
2019-03-10T12:36:40.974Z,0.60
2019-03-10T12:41:57.785Z,0.47
2019-03-10T12:46:55.745Z,1.12
2019-03-10T12:52:02.266Z,2.62
2019-03-10T12:57:08.780Z,0.68
2019-03-10T13:02:15.490Z,0.50
2019-03-10T13:07:22.092Z,0.53
2019-03-10T13:12:28.636Z,0.30
2019-03-10T13:17:35.019Z,0.68
2019-03-10T13:22:41.622Z,0.30
2019-03-10T13:27:48.140Z,0.70
2019-03-10T13:32:54.607Z,0.53
2019-03-10T13:38:02.194Z,0.33
2019-03-10T13:43:09.882Z,0.72
2019-03-10T13:48:16.444Z,2.05
2019-03-10T13:53:22.983Z,1.17
2019-03-10T13:58:30.580Z,0.53
2019-03-10T14:03:37.130Z,0.40
2019-03-10T14:08:43.827Z,0.95
2019-03-10T14:13:50.224Z,0.70
2019-03-10T14:18:56.893Z,1.70
2019-03-10T14:24:03.516Z,2.02
2019-03-10T14:29:10.123Z,5.12
2019-03-10T14:34:16.674Z,3.17
2019-03-10T14:39:23.318Z,2.87
2019-03-10T14:44:29.897Z,3.70
2019-03-10T14:49:36.344Z,5.33
2019-03-10T14:54:42.964Z,5.30
2019-03-10T14:59:49.658Z,1.32
2019-03-10T15:04:56.309Z,2.92
2019-03-10T15:10:13.120Z,3.42
2019-03-10T15:15:22.575Z,3.65
2019-03-10T15:20:28.188Z,2.12
2019-03-10T15:25:34.716Z,1.27
2019-03-10T15:30:41.356Z,0.90
2019-03-10T15:35:47.907Z,3.22
2019-03-10T15:40:54.517Z,1.95
2019-03-10T15:46:01.037Z,1.45
2019-03-10T15:51:08.114Z,4.42
2019-03-10T15:56:14.487Z,3.80
2019-03-10T16:01:21.175Z,1.98
2019-03-10T16:06:27.779Z,2.72
2019-03-10T16:11:34.766Z,6.00
2019-03-10T16:16:41.553Z,3.17
2019-03-10T16:21:48.190Z,3.92
2019-03-10T16:26:54.793Z,5.83
2019-03-10T16:32:01.392Z,4.70
2019-03-10T16:37:08.001Z,2.98
2019-03-10T16:42:14.638Z,3.72
2019-03-10T16:47:21.207Z,2.92
2019-03-10T16:52:27.817Z,3.95
2019-03-10T16:57:34.351Z,4.25
2019-03-10T17:02:43.274Z,5.65
2019-03-10T17:07:49.706Z,5.97
2019-03-10T17:12:56.402Z,6.85
2019-03-10T17:18:02.947Z,4.05
2019-03-10T17:23:09.555Z,5.10
2019-03-10T17:28:16.167Z,7.40
2019-03-10T17:33:22.802Z,7.25
2019-03-10T17:38:29.248Z,5.22
2019-03-10T17:43:35.794Z,4.28
2019-03-10T17:48:42.401Z,3.98
2019-03-10T17:53:48.935Z,1.85
2019-03-10T17:58:55.623Z,2.25
2019-03-10T18:04:02.123Z,3.02
2019-03-10T18:52:17.171Z,3.33
2019-03-10T18:57:23.846Z,4.15
2019-03-10T19:02:30.535Z,1.80
2019-03-10T19:07:36.991Z,2.02
2019-03-10T19:12:43.610Z,1.07
2019-03-10T19:17:50.344Z,1.72
2019-03-10T19:22:56.953Z,3.42
2019-03-10T19:28:03.550Z,0.80
2019-03-10T19:33:10.278Z,1.80
2019-03-10T19:38:16.822Z,4.65
2019-03-10T19:43:23.436Z,1.22
2019-03-10T19:48:29.982Z,1.25
2019-03-10T19:53:36.631Z,1.00
2019-03-10T19:58:43.182Z,4.92
2019-03-10T20:03:50.860Z,0.78
2019-03-10T20:08:57.243Z,1.07
2019-03-10T20:14:03.812Z,1.90
2019-03-10T20:44:32.499Z,8.23
2019-03-10T20:49:39.134Z,1.50
2019-03-10T20:54:45.718Z,1.45
2019-03-10T21:00:00.287Z,1.22
2019-03-10T21:05:00.815Z,0.20
2019-03-10T21:10:09.488Z,2.27
2019-03-10T21:15:17.729Z,0.88
2019-03-10T21:20:24.554Z,0.30
2019-03-10T21:25:31.227Z,0.53
2019-03-10T21:30:37.777Z,0.50
2019-03-10T21:35:44.318Z,0.62
2019-03-10T21:40:50.809Z,0.37
2019-03-10T21:45:57.351Z,0.40
2019-03-10T21:51:03.827Z,0.30
2019-03-10T21:56:10.309Z,0.40
2019-03-10T22:01:16.931Z,0.57
2019-03-10T22:06:23.592Z,0.75
2019-03-10T22:11:30.211Z,0.57
2019-03-10T22:16:36.742Z,0.90
2019-03-10T22:21:43.365Z,0.98
2019-03-10T22:26:50.083Z,1.65
2019-03-10T22:31:56.633Z,2.05
2019-03-10T22:37:03.118Z,0.40
2019-03-10T22:42:09.592Z,0.50
2019-03-10T22:47:16.232Z,0.40
2019-03-10T22:52:22.851Z,0.60
2019-03-10T22:57:29.250Z,2.55
2019-03-10T23:02:35.735Z,0.70
2019-03-10T23:07:42.386Z,0.98
2019-03-10T23:12:49.010Z,1.17
2019-03-10T23:17:55.483Z,1.72
2019-03-10T23:23:02.021Z,2.45
2019-03-10T23:28:08.743Z,0.70
2019-03-10T23:33:15.360Z,1.42
2019-03-10T23:38:21.917Z,0.78
2019-03-10T23:43:28.468Z,0.98
2019-03-10T23:48:35.035Z,0.85
2019-03-10T23:53:41.671Z,1.85
2019-03-10T23:58:48.301Z,1.00
